KLNP

Lonesome Pine Airport

Wise, Virginia, USA
METAR KLNP 230815Z AUTO 00000KT 2 1/2SM BR CLR 18/18 A3014 RMK AO2 VIS 1V5
Observed Flight Rules
May-23 @ 08:15 UTC (32 minutes ago) Instrument Flight Rules
Visibility Clouds Conditions
2 1/2 miles
  • Clear skies
  • Mist
Temperatures Readings
Current 18°C / 64°F
Dewpoint 18°C / 64°F
Humidity 100%
Altimeter 30.14" Hg
Pressure 1021 hPa
Elevation 817
METAR KLNP 230815Z AUTO 00000KT 2 1/2SM BR CLR 18/18 A3014 RMK AO2 VIS 1V5
Observed Flight Rules
May-23 @ 08:15 UTC
(32 minutes ago)
IFR
Clouds
  • Clear skies
Conditions
  • Mist
Temperature Dewpoint
18°C / 64°F 18°C / 64°F
Humidity Altimeter Pressure
100% 30.14" Hg 1021 hPa